sensor_id;sensor_type;location;lat;lon;timestamp;P1;durP1;ratioP1;P2;durP2;ratioP2
42854;SDS011;29183;48.038;14.346;2023-05-10T01:54:32;11.98;;;8.27;;
42854;SDS011;29183;48.038;14.346;2023-05-10T02:00:19;13.43;;;7.80;;
42854;SDS011;29183;48.038;14.346;2023-05-10T02:06:06;13.00;;;7.68;;
42854;SDS011;29183;48.038;14.346;2023-05-10T02:12:13;11.88;;;7.72;;
42854;SDS011;29183;48.038;14.346;2023-05-10T02:18:01;14.98;;;7.80;;
42854;SDS011;29183;48.038;14.346;2023-05-10T02:23:48;9.20;;;7.05;;
42854;SDS011;29183;48.038;14.346;2023-05-10T02:29:36;11.00;;;7.65;;
42854;SDS011;29183;48.038;14.346;2023-05-10T02:35:13;11.02;;;7.47;;
42854;SDS011;29183;48.038;14.346;2023-05-10T02:41:01;12.13;;;8.52;;
42854;SDS011;29183;48.038;14.346;2023-05-10T02:46:49;13.98;;;7.78;;
42854;SDS011;29183;48.038;14.346;2023-05-10T02:55:55;11.70;;;7.80;;
42854;SDS011;29183;48.038;14.346;2023-05-10T03:08:47;11.65;;;7.85;;
42854;SDS011;29183;48.038;14.346;2023-05-10T03:14:42;12.05;;;8.18;;
42854;SDS011;29183;48.038;14.346;2023-05-10T03:20:41;15.02;;;8.23;;
42854;SDS011;29183;48.038;14.346;2023-05-10T07:04:53;6.72;;;4.85;;
42854;SDS011;29183;48.038;14.346;2023-05-10T07:10:30;12.73;;;4.40;;
42854;SDS011;29183;48.038;14.346;2023-05-10T08:34:43;13.70;;;8.18;;
42854;SDS011;29183;48.038;14.346;2023-05-10T08:40:25;13.13;;;7.45;;
42854;SDS011;29183;48.038;14.346;2023-05-10T08:46:06;11.55;;;7.70;;
42854;SDS011;29183;48.038;14.346;2023-05-10T08:51:49;10.82;;;7.80;;
42854;SDS011;29183;48.038;14.346;2023-05-10T09:00:10;14.98;;;9.40;;
42854;SDS011;29183;48.038;14.346;2023-05-10T09:05:58;13.00;;;8.35;;
42854;SDS011;29183;48.038;14.346;2023-05-10T09:11:48;15.63;;;9.70;;
42854;SDS011;29183;48.038;14.346;2023-05-10T11:38:20;17.00;;;11.73;;
42854;SDS011;29183;48.038;14.346;2023-05-10T11:44:01;12.65;;;8.07;;
42854;SDS011;29183;48.038;14.346;2023-05-10T21:29:26;7.25;;;5.18;;
42854;SDS011;29183;48.038;14.346;2023-05-10T21:38:23;6.80;;;4.55;;
42854;SDS011;29183;48.038;14.346;2023-05-10T21:43:35;4.97;;;4.00;;
42854;SDS011;29183;48.038;14.346;2023-05-10T21:49:22;5.95;;;4.25;;
42854;SDS011;29183;48.038;14.346;2023-05-10T21:55:08;8.40;;;4.32;;
42854;SDS011;29183;48.038;14.346;2023-05-10T22:01:00;6.85;;;4.68;;
42854;SDS011;29183;48.038;14.346;2023-05-10T22:06:47;9.98;;;5.65;;
42854;SDS011;29183;48.038;14.346;2023-05-10T22:15:20;6.63;;;4.70;;
42854;SDS011;29183;48.038;14.346;2023-05-10T22:21:03;8.05;;;4.68;;
42854;SDS011;29183;48.038;14.346;2023-05-10T22:29:57;5.32;;;4.10;;
42854;SDS011;29183;48.038;14.346;2023-05-10T22:35:43;5.30;;;4.03;;
42854;SDS011;29183;48.038;14.346;2023-05-10T22:41:31;7.68;;;4.80;;
42854;SDS011;29183;48.038;14.346;2023-05-10T22:47:19;7.13;;;5.22;;
42854;SDS011;29183;48.038;14.346;2023-05-10T22:53:07;6.85;;;4.53;;
42854;SDS011;29183;48.038;14.346;2023-05-10T22:58:53;7.07;;;4.97;;
42854;SDS011;29183;48.038;14.346;2023-05-10T23:04:40;5.93;;;4.35;;
42854;SDS011;29183;48.038;14.346;2023-05-10T23:09:47;6.80;;;4.78;;
42854;SDS011;29183;48.038;14.346;2023-05-10T23:12:18;6.10;;;4.50;;
42854;SDS011;29183;48.038;14.346;2023-05-10T23:21:01;6.20;;;3.40;;
42854;SDS011;29183;48.038;14.346;2023-05-10T23:23:31;6.60;;;3.83;;
42854;SDS011;29183;48.038;14.346;2023-05-10T23:26:01;3.03;;;2.50;;
42854;SDS011;29183;48.038;14.346;2023-05-10T23:31:52;2.35;;;2.03;;
42854;SDS011;29183;48.038;14.346;2023-05-10T23:34:37;4.00;;;2.00;;
42854;SDS011;29183;48.038;14.346;2023-05-10T23:40:19;1.30;;;1.20;;
42854;SDS011;29183;48.038;14.346;2023-05-10T23:45:50;1.40;;;1.30;;
42854;SDS011;29183;48.038;14.346;2023-05-10T23:48:20;2.80;;;1.55;;
42854;SDS011;29183;48.038;14.346;2023-05-10T23:50:56;1.27;;;1.17;;
42854;SDS011;29183;48.038;14.346;2023-05-10T23:59:32;1.25;;;0.95;;
